Terminal Aerodrome Forecast
Issued by NWS

Home | Current Version | Previous Version | Text Only | Print | Product List | Glossary On
Versions: 1 2 3 4 5 6 7 8 9 10 11 12 13 14
000
FTUS44 KLIX 012300
TAFMSY
TAF
KMSY 012336Z 0200/0224 15006KT P6SM FEW035 BKN100 BKN250
     FM020200 15004KT P6SM SCT250
     FM021200 13005KT P6SM BKN025
     FM021600 13007KT P6SM SCT040
      TEMPO 0216/0220 VRB25KT 2SM TSRA BKN025CB=

USA.gov is the U.S. government's official web portal to all federal, state and local government web resources and services.